Time;durP1;ratioP1;P1;durP2;ratioP2;P2;SDS_P1;SDS_P2;PMS_P1;PMS_P2;Temp;Humidity;BMP_temperature;BMP_pressure;BME280_temperature;BME280_humidity;BME280_pressure;Samples;Min_cycle;Max_cycle;Signal;HPM_P1;HPM_P2
2023/11/16 00:01:41;;;;;;;10.60;5.68;;;;;;;5.49;76.22;98499.09;5035043;28;20041;-35
2023/11/16 00:04:09;;;;;;;10.55;5.30;;;;;;;5.59;76.34;98521.97;5034710;28;20085;-36
2023/11/16 00:06:35;;;;;;;11.50;5.95;;;;;;;5.57;76.27;98516.00;5034161;28;20265;-37
2023/11/16 00:09:01;;;;;;;14.88;5.80;;;;;;;5.58;76.17;98522.88;5048008;28;20044;-35
2023/11/16 00:11:29;;;;;;;14.40;5.40;;;;;;;5.59;76.23;98524.56;5036535;28;20070;-36
2023/11/16 00:13:56;;;;;;;11.13;5.25;;;;;;;5.58;76.17;98518.56;5034716;28;20037;-36
2023/11/16 00:16:22;;;;;;;10.00;5.13;;;;;;;5.58;76.41;98521.13;5036704;28;20537;-35
2023/11/16 00:18:48;;;;;;;11.88;5.10;;;;;;;5.50;76.11;98513.63;5045402;28;20064;-35
2023/11/16 00:21:13;;;;;;;10.63;4.97;;;;;;;5.57;75.91;98526.31;5035560;28;20136;-35
2023/11/16 00:23:39;;;;;;;9.68;4.45;;;;;;;5.53;76.80;98526.44;5033593;28;20041;-36
2023/11/16 00:26:09;;;;;;;12.95;5.25;;;;;;;5.52;76.74;98524.75;5033560;28;20040;-35
2023/11/16 00:28:35;;;;;;;11.77;5.32;;;;;;;5.53;76.77;98530.75;5033150;28;20037;-36
2023/11/16 00:31:01;;;;;;;12.45;6.07;;;;;;;5.40;76.77;98507.09;5027637;28;20071;-35
2023/11/16 00:33:29;;;;;;;16.20;6.20;;;;;;;5.53;76.80;98526.44;5036747;28;20045;-35
2023/11/16 00:35:58;;;;;;;11.98;5.93;;;;;;;5.51;76.81;98528.22;5028488;28;20051;-35
2023/11/16 00:38:27;;;;;;;13.90;6.60;;;;;;;5.33;76.30;98507.34;5040318;28;20045;-36
2023/11/16 00:40:56;;;;;;;11.95;5.10;;;;;;;5.48;76.79;98536.06;5048948;28;20060;-35
2023/11/16 00:43:23;;;;;;;16.90;5.05;;;;;;;5.49;76.36;98524.00;5031404;28;20071;-36
2023/11/16 00:45:50;;;;;;;9.48;4.88;;;;;;;5.49;76.41;98530.03;5026346;28;20137;-36
2023/11/16 00:48:16;;;;;;;10.95;3.72;;;;;;;5.29;76.83;98498.88;5034551;28;20049;-36
2023/11/16 00:50:42;;;;;;;12.43;5.13;;;;;;;5.49;76.23;98536.91;5035772;28;20094;-36
2023/11/16 00:53:10;;;;;;;11.10;5.57;;;;;;;5.49;76.47;98536.91;5037449;28;20037;-36
2023/11/16 00:55:36;;;;;;;11.20;5.10;;;;;;;5.52;76.20;98542.78;5032458;28;20099;-35
2023/11/16 00:58:02;;;;;;;8.85;4.50;;;;;;;5.50;75.98;98536.84;5033330;28;20045;-36
2023/11/16 01:00:31;;;;;;;11.38;5.28;;;;;;;5.46;75.89;98542.97;5048007;28;20033;-35
2023/11/16 01:02:58;;;;;;;10.93;4.57;;;;;;;5.44;76.04;98529.28;5048492;28;20103;-36
2023/11/16 01:05:24;;;;;;;9.32;4.50;;;;;;;5.45;75.69;98533.56;5032848;28;20128;-35
2023/11/16 01:07:51;;;;;;;9.32;4.75;;;;;;;5.45;76.11;98532.72;5046616;28;20409;-36
2023/11/16 01:10:23;;;;;;;12.45;5.85;;;;;;;5.47;76.32;98541.25;5014615;28;20051;-35
2023/11/16 01:12:51;;;;;;;10.80;5.15;;;;;;;5.30;76.21;98523.75;5040936;28;20515;-35
2023/11/16 01:15:18;;;;;;;11.00;5.38;;;;;;;5.44;76.31;98544.75;5040065;28;20416;-36
2023/11/16 01:17:48;;;;;;;8.98;4.47;;;;;;;5.44;76.39;98544.75;5032749;28;20041;-35
2023/11/16 01:20:18;;;;;;;10.77;5.45;;;;;;;5.45;76.15;98551.59;5037721;28;20072;-36
2023/11/16 01:22:50;;;;;;;;;;;;;;;5.43;75.56;98552.56;5030919;28;20052;-35
2023/11/16 01:25:19;;;;;;;12.10;4.82;;;;;;;5.38;75.89;98544.13;5031823;28;19962;-36
2023/11/16 01:27:50;;;;;;;8.30;3.90;;;;;;;5.39;75.88;98549.22;5055876;28;20435;-36
2023/11/16 01:30:17;;;;;;;13.15;4.90;;;;;;;5.23;76.30;98526.59;5031590;28;20075;-35
2023/11/16 01:32:43;;;;;;;8.73;4.20;;;;;;;5.36;76.05;98551.06;5029497;28;20140;-36
2023/11/16 01:35:10;;;;;;;11.30;3.90;;;;;;;5.35;76.13;98552.78;5035035;28;20132;-36
2023/11/16 01:37:36;;;;;;;11.60;4.63;;;;;;;5.22;76.64;98530.88;5032919;28;20041;-36
2023/11/16 01:40:02;;;;;;;20.52;6.43;;;;;;;5.36;76.18;98549.31;5047257;28;20488;-35
2023/11/16 01:42:29;;;;;;;9.43;4.78;;;;;;;5.24;76.63;98526.50;5034637;28;20048;-36
2023/11/16 01:44:55;;;;;;;11.25;5.20;;;;;;;5.41;76.24;98551.75;5023611;28;20033;-35
2023/11/16 01:47:21;;;;;;;10.65;5.32;;;;;;;5.40;76.14;98550.06;5031575;28;20465;-35
2023/11/16 01:49:47;;;;;;;13.18;5.93;;;;;;;5.42;76.07;98554.28;5032843;28;20144;-36
2023/11/16 01:52:15;;;;;;;14.40;6.20;;;;;;;5.40;76.75;98558.63;5030845;28;20045;-35
2023/11/16 01:54:42;;;;;;;17.48;7.95;;;;;;;5.37;76.60;98557.91;5040808;28;20168;-36
2023/11/16 01:57:08;;;;;;;13.07;6.32;;;;;;;5.37;76.16;98557.91;5056248;28;20037;-36
2023/11/16 01:59:37;;;;;;;14.98;7.88;;;;;;;5.38;76.19;98568.16;5034749;28;20091;-35
2023/11/16 02:02:05;;;;;;;14.48;5.70;;;;;;;5.10;76.29;98518.38;5035142;28;20195;-35
2023/11/16 02:04:34;;;;;;;8.55;4.22;;;;;;;5.23;76.29;98548.03;5047632;28;20064;-37
2023/11/16 02:07:04;;;;;;;9.35;4.22;;;;;;;5.31;76.44;98566.66;5032538;28;20517;-36
2023/11/16 02:09:30;;;;;;;10.45;3.88;;;;;;;5.28;76.55;98556.47;5031605;28;20580;-37
2023/11/16 02:11:56;;;;;;;8.35;4.47;;;;;;;5.26;76.50;98568.53;5031163;28;20141;-36
2023/11/16 02:14:22;;;;;;;7.07;3.72;;;;;;;5.24;76.70;98562.59;5047858;28;20117;-36
2023/11/16 02:16:49;;;;;;;14.68;5.40;;;;;;;5.22;76.68;98569.53;5033057;28;20098;-35
2023/11/16 02:19:29;;;;;;;11.98;5.07;;;;;;;5.19;76.66;98569.59;5029171;28;20560;-35
2023/11/16 02:21:57;;;;;;;10.98;5.20;;;;;;;5.21;76.92;98572.16;5020002;28;20111;-36
2023/11/16 02:24:24;;;;;;;8.38;4.75;;;;;;;5.10;76.64;98560.44;5025660;28;20045;-36
2023/11/16 02:26:51;;;;;;;9.57;4.90;;;;;;;5.02;76.87;98546.13;5039498;28;20649;-34
2023/11/16 02:29:17;;;;;;;11.05;5.18;;;;;;;5.21;76.84;98578.16;5035801;28;20041;-36
2023/11/16 02:31:44;;;;;;;10.18;4.85;;;;;;;5.03;76.70;98553.78;5038492;28;20068;-36
2023/11/16 02:34:11;;;;;;;9.93;5.15;;;;;;;5.16;76.82;98574.88;5045256;28;20045;-36
2023/11/16 02:36:37;;;;;;;14.38;5.72;;;;;;;5.18;77.22;98580.84;5047014;28;20048;-36
2023/11/16 02:39:03;;;;;;;8.63;4.50;;;;;;;5.16;77.46;98577.44;5030713;28;20041;-35
2023/11/16 02:41:32;;;;;;;12.52;5.85;;;;;;;5.13;77.40;98577.53;5034823;28;20531;-36
2023/11/16 02:43:57;;;;;;;15.57;7.65;;;;;;;5.11;77.03;98575.00;5035415;28;20041;-35
2023/11/16 02:46:23;;;;;;;11.75;6.22;;;;;;;4.74;77.39;98512.63;5036198;28;20162;-36
2023/11/16 02:48:49;;;;;;;8.43;4.70;;;;;;;5.08;76.93;98571.66;5047826;28;20114;-35
2023/11/16 02:51:15;;;;;;;8.85;4.00;;;;;;;5.08;77.32;98579.38;5035759;28;20521;-37
2023/11/16 02:53:44;;;;;;;6.70;3.47;;;;;;;4.87;76.73;98554.28;5055122;28;20513;-37
2023/11/16 02:56:13;;;;;;;7.63;4.37;;;;;;;5.03;77.58;98584.69;5034260;28;20052;-36
2023/11/16 02:58:43;;;;;;;11.70;5.95;;;;;;;5.02;77.35;98595.88;5034299;28;20307;-36
2023/11/16 03:01:12;;;;;;;7.68;3.95;;;;;;;4.73;77.11;98551.25;5035466;28;20052;-36
2023/11/16 03:03:39;;;;;;;14.55;3.75;;;;;;;4.79;77.06;98561.41;5046262;28;20053;-36
2023/11/16 03:06:06;;;;;;;8.00;3.85;;;;;;;4.97;77.11;98594.34;5034994;28;20103;-36
2023/11/16 03:08:34;;;;;;;6.72;3.78;;;;;;;4.95;77.29;98590.97;5050039;28;20059;-36
2023/11/16 03:11:02;;;;;;;5.55;3.10;;;;;;;4.94;77.08;98595.25;5051016;28;20048;-34
2023/11/16 03:13:29;;;;;;;9.02;4.05;;;;;;;4.95;77.26;98601.25;5031014;28;20049;-36
2023/11/16 03:15:55;;;;;;;8.68;3.83;;;;;;;4.94;77.08;98599.56;5044988;28;20048;-36
2023/11/16 03:18:22;;;;;;;6.05;3.42;;;;;;;4.93;77.08;98605.59;5029815;28;20041;-35
2023/11/16 03:20:48;;;;;;;6.72;3.35;;;;;;;4.93;77.01;98603.03;5058323;28;20098;-36
2023/11/16 03:23:15;;;;;;;6.00;2.92;;;;;;;4.92;77.12;98604.75;5036144;28;20046;-35
2023/11/16 03:25:42;;;;;;;5.53;3.08;;;;;;;4.91;77.31;98607.41;5037577;28;20041;-35
2023/11/16 03:28:09;;;;;;;6.95;3.25;;;;;;;4.87;77.56;98593.75;5017643;28;20587;-36
2023/11/16 03:30:34;;;;;;;6.03;2.90;;;;;;;4.87;77.01;98600.63;5043975;28;20040;-36
2023/11/16 03:33:01;;;;;;;5.25;2.67;;;;;;;4.86;77.49;98604.97;5049937;28;20137;-36
2023/11/16 03:35:27;;;;;;;7.13;3.47;;;;;;;4.86;77.15;98614.41;5050553;28;20041;-37
2023/11/16 03:37:53;;;;;;;5.47;3.17;;;;;;;4.83;77.28;98606.75;5048233;28;20032;-36
2023/11/16 03:40:19;;;;;;;5.35;3.00;;;;;;;4.85;77.24;98616.13;5041700;28;20052;-36
2023/11/16 03:42:45;;;;;;;5.57;2.90;;;;;;;4.83;77.67;98610.19;5051469;28;20071;-36
2023/11/16 03:45:11;;;;;;;5.20;2.97;;;;;;;4.84;77.50;98613.59;5052871;28;20041;-36
2023/11/16 03:47:37;;;;;;;6.85;3.75;;;;;;;4.84;77.24;98611.88;5048701;28;21824;-36
2023/11/16 03:50:04;;;;;;;5.88;3.28;;;;;;;4.83;77.13;98617.91;5050644;28;20076;-36
2023/11/16 03:52:31;;;;;;;8.00;4.28;;;;;;;4.83;77.37;98617.91;5037608;28;20037;-36
2023/11/16 03:54:58;;;;;;;8.98;4.18;;;;;;;4.84;77.52;98621.31;5035783;28;20056;-36
2023/11/16 03:57:25;;;;;;;5.72;3.40;;;;;;;4.82;77.05;98621.34;5057008;28;20485;-37
2023/11/16 03:59:52;;;;;;;7.82;4.40;;;;;;;4.82;77.71;98617.94;5056263;28;20080;-35
2023/11/16 04:02:19;;;;;;;7.40;4.65;;;;;;;4.79;77.67;98625.75;5028427;28;20071;-36
2023/11/16 04:04:47;;;;;;;6.70;3.92;;;;;;;4.79;77.27;98624.03;5046741;28;20041;-36
2023/11/16 04:07:15;;;;;;;8.95;4.55;;;;;;;4.80;77.61;98625.72;5029718;28;20090;-36
2023/11/16 04:09:41;;;;;;;11.27;5.90;;;;;;;4.80;77.69;98628.31;5036064;28;20374;-37
2023/11/16 04:12:08;;;;;;;14.77;6.95;;;;;;;4.63;77.42;98605.59;5033013;28;20098;-37
2023/11/16 04:14:39;;;;;;;11.82;7.00;;;;;;;4.82;77.47;98634.22;5049242;28;20546;-37
2023/11/16 04:17:09;;;;;;;12.95;7.32;;;;;;;4.80;77.57;98636.03;5035853;28;20045;-37
2023/11/16 04:19:36;;;;;;;12.57;6.82;;;;;;;4.63;77.04;98620.19;5033581;28;20109;-35
2023/11/16 04:22:04;;;;;;;11.80;7.32;;;;;;;4.59;77.39;98608.31;5056735;28;20045;-36
2023/11/16 04:24:31;;;;;;;7.75;5.72;;;;;;;4.73;77.07;98639.66;5048098;28;20045;-35
2023/11/16 04:26:57;;;;;;;9.20;5.90;;;;;;;4.54;76.89;98602.44;5050695;28;20390;-36
2023/11/16 04:29:23;;;;;;;10.50;7.03;;;;;;;4.72;77.49;98635.38;5047881;28;20042;-37
2023/11/16 04:31:49;;;;;;;11.35;7.78;;;;;;;4.55;77.17;98615.25;5055827;28;20695;-37
2023/11/16 04:34:15;;;;;;;13.82;8.63;;;;;;;4.69;77.44;98646.63;5050535;28;20042;-36
2023/11/16 04:36:41;;;;;;;10.50;6.93;;;;;;;4.71;77.09;98646.56;5036903;28;20048;-36
2023/11/16 04:39:08;;;;;;;11.88;8.50;;;;;;;4.70;77.11;98650.03;5032675;28;20052;-37
2023/11/16 04:41:35;;;;;;;11.02;7.30;;;;;;;4.52;76.83;98622.22;5029122;28;20045;-36
2023/11/16 04:44:02;;;;;;;10.27;6.07;;;;;;;4.68;76.99;98646.66;5045606;28;20505;-36
2023/11/16 04:46:28;;;;;;;6.82;4.70;;;;;;;4.60;77.45;98644.31;5051580;28;20037;-37
2023/11/16 04:48:54;;;;;;;6.22;3.80;;;;;;;4.50;77.01;98636.88;5051928;28;20064;-35
2023/11/16 04:51:21;;;;;;;5.90;3.85;;;;;;;4.44;76.77;98635.28;5053208;28;20598;-41
2023/11/16 04:53:49;;;;;;;6.82;4.57;;;;;;;4.60;77.02;98658.91;5055395;28;21155;-37
2023/11/16 04:56:16;;;;;;;7.13;4.60;;;;;;;4.62;76.80;98668.25;5055150;28;20033;-36
2023/11/16 04:58:43;;;;;;;7.95;4.72;;;;;;;4.59;76.71;98658.03;5053427;28;20453;-35
2023/11/16 05:01:09;;;;;;;10.40;6.15;;;;;;;4.46;77.24;98635.22;5052346;28;20693;-37
2023/11/16 05:03:36;;;;;;;5.40;3.50;;;;;;;4.60;76.96;98658.91;5051722;28;20514;-35
2023/11/16 05:06:02;;;;;;;7.78;2.70;;;;;;;4.40;76.95;98633.66;5053599;28;20507;-35
2023/11/16 05:08:28;;;;;;;5.63;2.78;;;;;;;4.57;76.90;98664.94;5055011;28;20072;-37
2023/11/16 05:10:55;;;;;;;6.97;3.15;;;;;;;4.56;76.76;98670.97;5050952;28;20497;-37
2023/11/16 05:13:22;;;;;;;5.38;3.05;;;;;;;4.56;76.88;98670.97;5052974;28;20055;-36
2023/11/16 05:15:49;;;;;;;5.90;3.55;;;;;;;4.28;76.49;98633.16;5054663;28;20040;-36
2023/11/16 05:18:16;;;;;;;5.05;3.10;;;;;;;4.54;77.09;98672.78;5056459;28;20517;-37
2023/11/16 05:20:43;;;;;;;5.50;3.15;;;;;;;4.54;76.50;98677.06;5046980;28;20514;-36
2023/11/16 05:23:10;;;;;;;6.80;2.97;;;;;;;4.55;76.80;98687.31;5040312;28;20055;-37
2023/11/16 05:25:37;;;;;;;4.20;2.88;;;;;;;4.53;76.35;98683.94;5039279;28;20040;-37
2023/11/16 05:28:05;;;;;;;5.53;2.38;;;;;;;4.52;76.28;98678.81;5040099;28;20118;-37
2023/11/16 05:30:33;;;;;;;5.07;3.10;;;;;;;4.14;76.72;98618.91;5032956;28;20037;-35
2023/11/16 05:33:02;;;;;;;7.47;2.97;;;;;;;4.49;76.73;98678.91;5023286;28;20033;-37
2023/11/16 05:35:32;;;;;;;5.57;2.92;;;;;;;4.48;76.61;98680.66;5045901;28;20513;-36
2023/11/16 05:37:59;;;;;;;6.78;2.88;;;;;;;4.43;76.87;98682.50;5033162;28;20416;-36
2023/11/16 05:40:26;;;;;;;7.82;3.25;;;;;;;4.30;76.96;98655.38;5047130;28;20496;-42
2023/11/16 05:42:53;;;;;;;7.13;3.20;;;;;;;4.31;76.76;98669.09;5031319;28;20045;-36
2023/11/16 05:45:19;;;;;;;4.70;2.50;;;;;;;4.47;76.68;98689.25;5032725;28;20033;-37
2023/11/16 05:47:45;;;;;;;6.60;3.00;;;;;;;4.44;76.80;98689.34;5048297;28;20065;-36
2023/11/16 05:50:12;;;;;;;3.35;2.47;;;;;;;4.46;76.54;98689.28;5031553;28;20501;-35
2023/11/16 05:52:38;;;;;;;6.70;3.00;;;;;;;4.42;76.57;98696.25;5029076;28;20065;-36
2023/11/16 05:55:05;;;;;;;6.13;3.30;;;;;;;4.24;76.77;98661.53;5037395;28;20132;-36
2023/11/16 05:57:34;;;;;;;5.38;3.17;;;;;;;4.48;76.84;98688.38;5030081;28;20041;-37
2023/11/16 06:00:01;;;;;;;5.13;3.25;;;;;;;4.50;76.68;98696.88;5047603;28;20038;-36
2023/11/16 06:02:30;;;;;;;6.75;3.50;;;;;;;4.45;76.49;98693.56;5031611;28;20041;-36
2023/11/16 06:04:56;;;;;;;5.10;2.83;;;;;;;4.49;75.94;98710.66;5030301;28;20083;-37
2023/11/16 06:07:22;;;;;;;6.35;3.33;;;;;;;4.32;75.64;98692.22;5028107;28;20037;-37
2023/11/16 06:09:48;;;;;;;5.65;3.10;;;;;;;4.50;75.55;98711.50;5034275;28;20513;-37
2023/11/16 06:12:17;;;;;;;5.90;3.15;;;;;;;4.52;75.65;98707.97;5031487;28;20080;-38
2023/11/16 06:14:52;;;;;;;5.93;2.90;;;;;;;4.38;75.00;98678.34;5035831;28;20042;-36
2023/11/16 06:17:18;;;;;;;6.68;2.70;;;;;;;4.53;75.17;98711.41;5034748;28;20326;-36
2023/11/16 06:19:44;;;;;;;7.07;2.88;;;;;;;4.54;75.23;98703.66;5034971;28;20041;-37
2023/11/16 06:22:10;;;;;;;6.18;3.30;;;;;;;4.42;74.88;98682.53;5019190;28;20041;-36
2023/11/16 06:24:36;;;;;;;6.75;2.88;;;;;;;4.40;74.85;98686.84;5033204;28;20556;-35
2023/11/16 06:27:04;;;;;;;4.72;2.88;;;;;;;4.55;74.33;98710.47;5032677;28;20033;-35
2023/11/16 06:29:30;;;;;;;5.60;3.08;;;;;;;4.55;74.54;98718.19;5034193;28;20583;-36
2023/11/16 06:31:57;;;;;;;9.05;3.35;;;;;;;4.56;74.28;98724.19;5035081;28;20509;-36
2023/11/16 06:34:23;;;;;;;6.18;3.40;;;;;;;4.38;74.25;98698.94;5035176;28;20523;-37
2023/11/16 06:36:49;;;;;;;9.98;3.95;;;;;;;4.55;73.95;98731.06;5032652;28;20037;-36
2023/11/16 06:39:15;;;;;;;7.68;4.03;;;;;;;4.55;74.13;98730.25;5051377;28;20045;-36
2023/11/16 06:41:41;;;;;;;9.10;4.68;;;;;;;4.59;73.90;98737.00;5034290;28;20095;-36
2023/11/16 06:44:08;;;;;;;7.93;3.78;;;;;;;4.58;73.98;98735.28;5036066;28;20037;-37
2023/11/16 06:46:34;;;;;;;6.95;3.58;;;;;;;4.42;73.53;98705.69;5035674;28;20392;-37
2023/11/16 06:49:07;;;;;;;7.47;4.10;;;;;;;4.56;74.28;98732.75;5031556;28;20493;-36
2023/11/16 06:51:35;;;;;;;6.28;3.40;;;;;;;4.59;74.13;98742.13;5038638;28;20874;-38
2023/11/16 06:54:05;;;;;;;4.90;3.08;;;;;;;4.60;73.96;98733.53;5033822;28;20045;-36
2023/11/16 06:56:33;;;;;;;9.30;4.25;;;;;;;4.62;74.14;98737.75;5033999;28;20067;-36
2023/11/16 06:59:02;;;;;;;4.57;2.88;;;;;;;4.64;73.75;98737.72;5037664;28;20064;-44
2023/11/16 07:01:29;;;;;;;7.85;3.28;;;;;;;4.50;73.61;98708.94;5046296;28;20057;-37
2023/11/16 07:03:55;;;;;;;7.65;4.32;;;;;;;4.64;73.25;98723.13;5035836;28;20088;-37
2023/11/16 07:06:23;;;;;;;9.60;3.88;;;;;;;4.58;73.75;98728.41;5034336;28;20049;-36
2023/11/16 07:08:50;;;;;;;7.35;3.50;;;;;;;4.63;73.28;98736.88;5037297;28;20044;-36
2023/11/16 07:11:20;;;;;;;6.72;3.78;;;;;;;4.64;73.49;98733.41;5039427;28;20049;-35
2023/11/16 07:13:46;;;;;;;6.43;3.30;;;;;;;4.62;74.08;98739.47;5038264;28;20040;-34
2023/11/16 07:16:13;;;;;;;4.90;3.13;;;;;;;4.62;73.38;98748.03;5030124;28;20056;-36
2023/11/16 07:18:39;;;;;;;5.70;3.15;;;;;;;4.58;73.54;98746.44;5031989;28;20044;-35
2023/11/16 07:21:06;;;;;;;6.57;3.60;;;;;;;4.56;73.93;98753.34;5039114;28;20041;-36
2023/11/16 07:23:32;;;;;;;8.18;3.65;;;;;;;4.54;73.86;98754.28;5050291;28;20043;-36
2023/11/16 07:26:00;;;;;;;12.13;3.83;;;;;;;4.54;74.01;98757.69;5034909;28;20063;-37
2023/11/16 07:28:28;;;;;;;6.28;3.30;;;;;;;4.49;73.97;98754.41;5034088;28;20101;-37
2023/11/16 07:30:54;;;;;;;7.45;3.58;;;;;;;4.51;74.00;98759.47;5034043;28;20056;-36
2023/11/16 07:33:23;;;;;;;7.00;3.33;;;;;;;4.52;74.05;98758.59;5034196;28;20151;-37
2023/11/16 07:35:50;;;;;;;6.47;3.20;;;;;;;4.53;73.91;98758.59;5035004;28;20146;-35
2023/11/16 07:38:17;;;;;;;7.18;3.80;;;;;;;4.56;73.99;98757.63;5033726;28;20044;-34
2023/11/16 07:40:43;;;;;;;5.95;3.47;;;;;;;4.58;73.81;98763.59;5033077;28;20128;-35
2023/11/16 07:43:09;;;;;;;5.55;2.80;;;;;;;4.57;73.61;98767.91;5031250;28;20852;-38
2023/11/16 07:45:36;;;;;;;5.30;3.10;;;;;;;4.58;73.70;98766.19;5033547;28;20504;-36
2023/11/16 07:48:04;;;;;;;9.30;3.67;;;;;;;4.58;72.98;98773.91;5049725;28;20405;-35
2023/11/16 07:50:32;;;;;;;6.22;2.80;;;;;;;4.59;73.08;98771.31;5049601;28;20033;-35
2023/11/16 07:53:00;;;;;;;6.28;3.25;;;;;;;4.25;72.73;98714.66;5050109;28;20072;-40
2023/11/16 07:55:26;;;;;;;7.82;3.28;;;;;;;4.54;72.44;98769.72;5034579;28;20124;-40
2023/11/16 07:57:55;;;;;;;4.80;2.95;;;;;;;4.54;72.18;98774.88;5035276;28;20162;-36
2023/11/16 08:00:26;;;;;;;5.32;3.00;;;;;;;4.49;72.44;98774.13;5034603;28;20102;-36
2023/11/16 08:05:53;;;;;;;7.00;3.25;;;;;;;4.44;72.18;98779.41;5004260;28;20049;-41
2023/11/16 08:08:20;;;;;;;5.10;2.65;;;;;;;4.29;71.71;98761.75;5036555;28;20033;-36
2023/11/16 08:10:50;;;;;;;4.20;2.60;;;;;;;4.49;71.46;98789.56;5035988;28;20055;-35
2023/11/16 08:13:18;;;;;;;8.05;3.30;;;;;;;4.37;71.58;98764.13;5048301;28;20583;-36
2023/11/16 08:15:46;;;;;;;5.82;3.33;;;;;;;4.54;71.18;98791.16;5031616;28;20394;-35
2023/11/16 08:18:13;;;;;;;6.53;3.37;;;;;;;4.51;70.94;98788.66;5041637;28;20044;-36
2023/11/16 08:20:39;;;;;;;5.90;3.28;;;;;;;4.52;71.40;98789.50;5035946;28;20037;-37
2023/11/16 08:23:06;;;;;;;17.65;3.58;;;;;;;4.52;70.63;98795.50;5028305;28;20034;-36
2023/11/16 08:25:33;;;;;;;6.15;2.95;;;;;;;4.51;70.58;98788.66;5033339;28;20042;-35
2023/11/16 08:28:01;;;;;;;7.20;3.17;;;;;;;4.24;70.76;98745.56;5033743;28;20037;-36
2023/11/16 08:30:27;;;;;;;7.05;2.88;;;;;;;4.54;70.67;98793.72;5031470;28;20048;-36
2023/11/16 08:32:53;;;;;;;5.05;2.53;;;;;;;4.51;70.33;98798.09;5041534;28;20039;-36
2023/11/16 08:35:20;;;;;;;4.88;2.85;;;;;;;4.52;70.01;98802.34;5032840;28;20041;-35
2023/11/16 08:37:46;;;;;;;4.88;2.97;;;;;;;4.58;70.36;98803.06;5030290;28;20033;-35
2023/11/16 08:40:18;;;;;;;5.07;2.58;;;;;;;4.60;69.57;98792.75;5031460;28;20045;-35
2023/11/16 08:42:47;;;;;;;4.78;2.70;;;;;;;4.62;69.28;98798.69;5032626;28;20757;-36
2023/11/16 08:45:19;;;;;;;3.85;2.33;;;;;;;4.62;69.39;98802.09;5032386;28;20041;-36
2023/11/16 08:47:51;;;;;;;5.22;2.10;;;;;;;4.60;68.64;98793.59;5045978;28;20037;-37
2023/11/16 08:50:22;;;;;;;3.70;2.45;;;;;;;4.41;68.34;98766.59;5045109;28;20458;-37
2023/11/16 08:52:50;;;;;;;4.93;2.70;;;;;;;4.41;68.17;98768.31;5039687;28;20048;-37
2023/11/16 08:55:21;;;;;;;4.65;2.55;;;;;;;4.63;68.39;98800.38;5035268;28;20071;-37
2023/11/16 08:57:50;;;;;;;4.80;2.45;;;;;;;4.63;67.88;98797.81;5029216;28;20045;-35
2023/11/16 09:00:27;;;;;;;7.30;2.45;;;;;;;4.58;68.12;98795.34;5038177;28;20128;-36
2023/11/16 09:02:56;;;;;;;4.88;2.33;;;;;;;4.63;67.93;98815.81;5049079;28;20084;-36
2023/11/16 09:05:26;;;;;;;5.68;2.50;;;;;;;4.60;67.55;98798.75;5051968;28;20034;-35
2023/11/16 09:07:52;;;;;;;5.13;1.85;;;;;;;4.58;67.62;98800.50;5045305;28;20037;-36
2023/11/16 09:10:21;;;;;;;4.70;2.30;;;;;;;4.56;67.27;98802.25;5049616;28;20135;-36
2023/11/16 09:12:49;;;;;;;4.82;2.15;;;;;;;4.59;67.06;98801.34;5064100;28;20056;-37
2023/11/16 09:15:16;;;;;;;6.90;2.37;;;;;;;4.58;67.06;98803.06;5049016;28;20044;-37
2023/11/16 09:17:45;;;;;;;3.38;2.00;;;;;;;4.58;66.92;98813.38;5054478;28;20047;-37
2023/11/16 09:20:13;;;;;;;4.83;2.13;;;;;;;4.56;66.73;98802.25;5051601;28;20063;-36
2023/11/16 09:22:42;;;;;;;3.50;2.15;;;;;;;4.39;66.59;98780.38;5065637;28;20350;-35
2023/11/16 09:25:15;;;;;;;4.55;2.10;;;;;;;4.52;66.72;98807.50;5046829;28;20153;-36
2023/11/16 09:27:42;;;;;;;3.85;2.10;;;;;;;4.26;66.37;98775.53;5050398;28;20861;-37
2023/11/16 09:30:14;;;;;;;5.00;2.38;;;;;;;4.29;66.33;98776.34;5050950;28;20577;-37
2023/11/16 09:32:41;;;;;;;4.22;2.88;;;;;;;4.46;66.15;98803.34;5052853;28;20044;-38
2023/11/16 09:35:09;;;;;;;4.85;2.72;;;;;;;4.48;66.82;98809.31;5045125;28;20037;-37
2023/11/16 09:37:36;;;;;;;9.02;2.92;;;;;;;4.47;66.20;98823.06;5051473;28;20127;-37
2023/11/16 09:40:08;;;;;;;7.65;3.35;;;;;;;4.49;66.32;98815.31;5046450;28;20484;-36
2023/11/16 09:42:35;;;;;;;6.65;3.05;;;;;;;4.32;66.64;98791.69;5051173;28;20068;-36
2023/11/16 09:45:03;;;;;;;7.45;2.72;;;;;;;4.48;66.76;98826.50;5019957;28;20512;-37
2023/11/16 09:47:44;;;;;;;5.88;2.88;;;;;;;4.49;66.86;98829.03;5052318;28;20055;-36
2023/11/16 09:50:12;;;;;;;8.93;2.65;;;;;;;4.31;66.67;98792.56;5037834;28;20102;-36
2023/11/16 09:52:41;;;;;;;5.18;2.30;;;;;;;4.48;66.77;98829.91;5052350;28;20578;-37
2023/11/16 09:55:11;;;;;;;9.30;2.45;;;;;;;4.26;66.53;98790.97;5032479;28;20044;-37
2023/11/16 09:57:41;;;;;;;4.75;2.60;;;;;;;4.26;66.86;98796.09;5044219;28;20667;-37
2023/11/16 10:00:15;;;;;;;4.72;2.53;;;;;;;4.45;66.58;98831.72;5045868;28;20049;-36
2023/11/16 10:02:47;;;;;;;7.85;3.25;;;;;;;4.44;66.45;98830.03;5040678;28;20073;-37
2023/11/16 10:05:22;;;;;;;9.25;3.20;;;;;;;4.37;66.57;98825.88;5038641;28;20041;-37
2023/11/16 10:07:53;;;;;;;5.97;2.70;;;;;;;4.35;66.84;98841.34;5042280;28;20491;-36
2023/11/16 10:10:21;;;;;;;5.85;3.95;;;;;;;4.18;66.59;98808.31;5034917;28;20068;-36
2023/11/16 10:12:50;;;;;;;8.82;3.63;;;;;;;4.34;66.53;98828.53;5040818;28;20048;-37
2023/11/16 10:15:17;;;;;;;;;;;;;;;4.36;66.10;98832.75;5041364;28;20037;-37
2023/11/16 10:17:43;;;;;;;5.68;3.10;;;;;;;4.25;66.49;98824.44;5058800;28;19927;-37
2023/11/16 10:20:11;;;;;;;4.60;2.95;;;;;;;4.11;66.88;98808.47;5041341;28;20041;-37
2023/11/16 10:22:38;;;;;;;6.75;3.25;;;;;;;4.31;67.21;98844.03;5044455;28;20029;-36
2023/11/16 10:25:06;;;;;;;4.15;2.42;;;;;;;4.25;67.04;98832.16;5038780;28;20051;-36
2023/11/16 10:27:33;;;;;;;4.60;2.92;;;;;;;4.28;66.84;98836.41;5030970;28;20033;-39
2023/11/16 10:30:04;;;;;;;5.40;2.90;;;;;;;4.24;66.89;98838.16;5040538;28;20053;-36
2023/11/16 10:32:36;;;;;;;4.10;2.30;;;;;;;4.23;66.75;98832.22;5038731;28;20067;-35
2023/11/16 10:35:02;;;;;;;3.20;1.92;;;;;;;4.20;66.83;98839.13;5032157;28;20527;-35
2023/11/16 10:37:30;;;;;;;4.70;2.33;;;;;;;4.02;66.72;98813.81;5013287;28;20056;-37
2023/11/16 10:39:56;;;;;;;3.60;2.20;;;;;;;4.21;66.55;98848.53;5054706;28;20090;-36
2023/11/16 10:42:24;;;;;;;2.97;2.17;;;;;;;4.20;66.81;98844.28;5039384;28;20557;-37
2023/11/16 10:44:52;;;;;;;3.50;2.38;;;;;;;4.08;66.95;98811.13;5057048;28;20061;-36
2023/11/16 10:47:19;;;;;;;8.00;1.90;;;;;;;4.26;67.29;98842.41;5043274;28;20099;-35
2023/11/16 10:49:48;;;;;;;4.45;1.85;;;;;;;4.25;66.62;98842.44;5031765;28;20083;-36
2023/11/16 10:52:15;;;;;;;3.72;1.80;;;;;;;4.29;66.71;98853.53;5047538;28;20124;-42
2023/11/16 10:54:44;;;;;;;5.18;1.60;;;;;;;4.28;66.20;98850.09;5039931;28;20048;-36
2023/11/16 10:57:13;;;;;;;3.90;2.35;;;;;;;4.06;66.35;98810.31;5030913;28;20049;-38
2023/11/16 10:59:50;;;;;;;5.65;1.35;;;;;;;4.10;66.57;98823.06;5047485;28;20467;-36
2023/11/16 11:02:17;;;;;;;4.45;2.10;;;;;;;4.14;66.00;98834.13;5027335;28;20424;-36
2023/11/16 11:04:44;;;;;;;7.35;2.90;;;;;;;4.26;66.31;98863.00;5030210;28;20608;-35
2023/11/16 11:07:12;;;;;;;3.80;2.30;;;;;;;4.26;66.29;98859.56;5027581;28;20043;-35
2023/11/16 11:09:48;;;;;;;3.60;1.90;;;;;;;4.24;66.60;98861.31;5036592;28;20402;-35
2023/11/16 11:12:15;;;;;;;5.25;1.77;;;;;;;4.26;66.37;98862.16;5038671;28;20034;-37
2023/11/16 11:15:00;;;;;;;3.95;2.25;;;;;;;4.13;66.08;98835.88;5042960;28;20037;-35
2023/11/16 11:17:35;;;;;;;4.20;2.45;;;;;;;4.27;66.48;98866.41;5043970;28;20071;-37
2023/11/16 11:20:09;;;;;;;2.75;1.85;;;;;;;4.28;66.60;98867.28;5042098;28;20047;-36
2023/11/16 11:22:36;;;;;;;4.22;2.20;;;;;;;4.26;66.58;98872.44;5057367;28;20048;-35
2023/11/16 11:25:12;;;;;;;4.57;2.80;;;;;;;4.21;66.43;98867.41;5034867;28;20124;-36
2023/11/16 11:27:39;;;;;;;3.42;2.30;;;;;;;4.19;66.56;98871.72;5032949;28;20600;-36
2023/11/16 11:30:10;;;;;;;5.85;2.58;;;;;;;4.17;66.92;98875.22;5057345;28;20064;-37
2023/11/16 11:32:42;;;;;;;3.10;2.17;;;;;;;4.15;66.68;98875.25;5051356;28;20048;-37
2023/11/16 11:35:12;;;;;;;4.72;2.50;;;;;;;3.84;66.75;98817.63;5037122;28;20055;-37
2023/11/16 11:37:38;;;;;;;3.42;2.50;;;;;;;4.19;66.85;98886.31;5038447;28;20142;-36
2023/11/16 11:40:08;;;;;;;4.28;2.33;;;;;;;4.02;67.55;98855.81;5031211;28;20080;-36
2023/11/16 11:42:38;;;;;;;4.22;2.80;;;;;;;4.16;67.76;98891.53;5017446;28;20053;-36
2023/11/16 11:45:05;;;;;;;4.00;1.83;;;;;;;4.12;67.41;98890.75;5033574;28;20053;-35
2023/11/16 11:47:32;;;;;;;7.63;5.13;;;;;;;4.10;67.16;98882.22;5048563;28;20045;-35